Thonotosassa, Florida
Current Conditions -  °F | °C
As of 1:55 AM on Monday 24 Nov 2014 (Local Time) from KVDF Reporting Station
Clear Clear  
Wind Chill: 75°   Ceiling: Unl
Heat Index: 75°   Visibility: 7mi
Dew Point: 72°   Wind: 7mph
Humidity: 89%   Direction: 190°S
Pressure: 29.92"   Gusts: NA
Location:  28.06°N, 82.3°W
Report Text: KVDF 240655Z AUTO 19006KT 7SM CLR 24/22 A2992 RMK AO2
Loading
Personal Weather Stations






























Interactive Weather Map New forecast layout! Learn more

10-Day Weather Forecast

Advertisements
Track Severe Weather on mobile